createdAt,value
2023-07-28T00:01:03.567Z,19.30
2023-07-28T00:03:32.881Z,19.30
2023-07-28T00:06:01.965Z,19.30
2023-07-28T00:08:28.876Z,19.30
2023-07-28T00:10:55.545Z,19.30
2023-07-28T00:13:22.246Z,19.30
2023-07-28T00:15:48.918Z,19.30
2023-07-28T00:18:15.604Z,19.30
2023-07-28T00:20:44.768Z,19.30
2023-07-28T00:23:11.497Z,19.40
2023-07-28T00:25:38.289Z,19.30
2023-07-28T00:28:05.139Z,19.30
2023-07-28T00:30:34.237Z,19.30
2023-07-28T00:33:01.027Z,19.30
2023-07-28T00:35:27.717Z,19.20
2023-07-28T00:37:56.633Z,19.20
2023-07-28T00:40:23.979Z,19.20
2023-07-28T00:42:51.014Z,19.20
2023-07-28T00:45:19.939Z,19.20
2023-07-28T00:47:47.183Z,19.20
2023-07-28T00:50:16.588Z,19.20
2023-07-28T00:52:43.567Z,19.20
2023-07-28T00:55:10.626Z,19.20
2023-07-28T00:57:37.603Z,19.20
2023-07-28T01:00:07.373Z,19.20
2023-07-28T01:02:34.117Z,19.20
2023-07-28T01:05:00.929Z,19.20
2023-07-28T01:07:38.809Z,19.20
2023-07-28T01:10:31.988Z,19.20
2023-07-28T01:12:58.763Z,19.20
2023-07-28T01:15:26.282Z,19.20
2023-07-28T01:17:53.362Z,19.20
2023-07-28T01:20:20.986Z,19.20
2023-07-28T01:23:10.790Z,19.20
2023-07-28T01:25:50.330Z,19.20
2023-07-28T01:28:19.271Z,19.20
2023-07-28T01:30:46.394Z,19.20
2023-07-28T01:33:13.098Z,19.20
2023-07-28T01:35:40.063Z,19.20
2023-07-28T01:38:07.079Z,19.20
2023-07-28T01:40:36.125Z,19.10
2023-07-28T01:43:02.991Z,19.20
2023-07-28T01:45:29.762Z,19.20
2023-07-28T01:47:56.501Z,19.20
2023-07-28T01:50:23.378Z,19.10
2023-07-28T01:52:52.460Z,19.10
2023-07-28T01:55:21.703Z,19.10
2023-07-28T01:57:56.175Z,19.10
2023-07-28T02:00:25.112Z,19.10
2023-07-28T02:02:52.639Z,19.10
2023-07-28T02:05:19.730Z,19.10
2023-07-28T02:07:47.218Z,19.20
2023-07-28T02:10:13.894Z,19.10
2023-07-28T02:12:41.036Z,19.10
2023-07-28T02:15:08.494Z,19.20
2023-07-28T02:17:35.732Z,19.20
2023-07-28T02:20:04.440Z,19.20
2023-07-28T02:22:31.449Z,19.20
2023-07-28T02:25:02.645Z,19.20
2023-07-28T02:27:29.754Z,19.20
2023-07-28T02:29:58.677Z,19.30
2023-07-28T02:32:25.463Z,19.20
2023-07-28T02:34:52.160Z,19.20
2023-07-28T02:37:23.645Z,19.30
2023-07-28T02:39:50.403Z,19.30
2023-07-28T02:42:17.137Z,19.30
2023-07-28T02:44:44.159Z,19.30
2023-07-28T02:47:10.848Z,19.20
2023-07-28T02:49:37.567Z,19.20
2023-07-28T02:52:04.514Z,19.20
2023-07-28T02:54:31.500Z,19.20
2023-07-28T02:56:58.290Z,19.20
2023-07-28T02:59:25.001Z,19.10
2023-07-28T03:01:53.059Z,19.20
2023-07-28T03:04:21.478Z,19.20
2023-07-28T03:06:48.867Z,19.20
2023-07-28T03:09:16.254Z,19.20
2023-07-28T03:11:45.911Z,19.20
2023-07-28T03:14:14.037Z,19.10
2023-07-28T03:16:42.339Z,19.10
2023-07-28T03:19:11.411Z,19.10
2023-07-28T03:21:40.099Z,19.10
2023-07-28T03:24:09.656Z,19.10
2023-07-28T03:26:36.803Z,19.10
2023-07-28T03:29:03.843Z,19.00
2023-07-28T03:31:30.791Z,19.00
2023-07-28T03:33:57.524Z,19.00
2023-07-28T03:36:24.342Z,18.90
2023-07-28T03:38:51.137Z,18.90
2023-07-28T03:41:17.904Z,18.80
2023-07-28T03:43:44.643Z,18.90
2023-07-28T03:46:11.443Z,18.80
2023-07-28T03:48:38.335Z,18.80
2023-07-28T03:51:05.362Z,18.80
2023-07-28T03:53:32.202Z,18.80
2023-07-28T03:55:59.387Z,18.80
2023-07-28T03:58:26.629Z,18.80
2023-07-28T04:00:54.363Z,18.70
2023-07-28T04:03:21.565Z,18.60
2023-07-28T04:05:50.799Z,18.70
2023-07-28T04:08:17.542Z,18.60
2023-07-28T04:10:44.314Z,18.50
2023-07-28T04:13:13.400Z,18.40
2023-07-28T04:15:40.197Z,18.30
2023-07-28T04:18:09.170Z,18.30
2023-07-28T04:20:35.934Z,18.20
2023-07-28T04:23:02.886Z,18.20
2023-07-28T04:25:31.024Z,18.20
2023-07-28T04:27:57.830Z,18.20
2023-07-28T04:30:27.589Z,18.10
2023-07-28T04:32:54.338Z,18.10
2023-07-28T04:35:21.078Z,18.10
2023-07-28T04:37:47.862Z,18.10
2023-07-28T04:40:17.428Z,18.10
2023-07-28T04:42:44.300Z,18.10
2023-07-28T04:45:11.105Z,18.10
2023-07-28T04:47:37.905Z,18.10
2023-07-28T04:50:05.030Z,18.10
2023-07-28T04:52:31.688Z,18.20
2023-07-28T04:54:58.392Z,18.20
2023-07-28T04:57:25.201Z,18.20
2023-07-28T04:59:51.853Z,18.30
2023-07-28T05:02:19.253Z,18.20
2023-07-28T05:04:46.076Z,18.20
2023-07-28T05:07:12.985Z,18.30
2023-07-28T05:09:39.782Z,18.30
2023-07-28T05:12:06.783Z,18.30
2023-07-28T05:14:35.780Z,18.30
2023-07-28T05:17:04.700Z,18.40
2023-07-28T05:19:31.419Z,18.30
2023-07-28T05:22:00.546Z,18.40
2023-07-28T05:24:29.476Z,18.40
2023-07-28T05:26:58.728Z,18.30
2023-07-28T05:29:25.467Z,18.40
2023-07-28T05:31:52.382Z,18.50
2023-07-28T05:34:21.239Z,18.50
2023-07-28T05:36:50.784Z,18.40
2023-07-28T05:39:17.504Z,18.40
2023-07-28T05:41:47.256Z,18.50
2023-07-28T05:44:14.238Z,18.60
2023-07-28T05:46:41.039Z,18.60
2023-07-28T05:49:07.837Z,18.60
2023-07-28T05:51:34.732Z,18.60
2023-07-28T05:54:01.691Z,18.70
2023-07-28T05:56:28.461Z,18.70
2023-07-28T05:58:56.692Z,18.70
2023-07-28T06:01:23.514Z,18.80
2023-07-28T06:03:51.107Z,18.80
2023-07-28T06:06:17.858Z,18.80
2023-07-28T06:08:44.605Z,18.70
2023-07-28T06:11:11.356Z,18.70
2023-07-28T06:13:40.409Z,18.80
2023-07-28T06:16:07.743Z,18.70
2023-07-28T06:18:34.534Z,18.70
2023-07-28T06:21:01.236Z,18.80
2023-07-28T06:23:28.525Z,18.80
2023-07-28T06:25:56.088Z,18.80
2023-07-28T06:28:23.060Z,18.80
2023-07-28T06:30:57.649Z,18.80
2023-07-28T06:33:25.869Z,18.80
2023-07-28T06:35:53.355Z,18.80
2023-07-28T06:38:20.306Z,18.80
2023-07-28T06:40:47.156Z,18.90
2023-07-28T06:43:13.932Z,18.90
2023-07-28T06:45:40.740Z,18.90
2023-07-28T06:48:07.602Z,18.90
2023-07-28T06:50:34.529Z,18.90
2023-07-28T06:53:01.266Z,18.90
2023-07-28T06:55:30.051Z,19.00
2023-07-28T06:57:59.028Z,19.00
2023-07-28T07:00:28.345Z,19.00
2023-07-28T07:02:55.228Z,19.10
2023-07-28T07:05:22.167Z,19.00
2023-07-28T07:07:51.685Z,19.10
2023-07-28T07:10:21.786Z,19.10
2023-07-28T07:12:49.152Z,19.20
2023-07-28T07:15:18.478Z,19.30
2023-07-28T07:17:45.397Z,19.30
2023-07-28T07:20:12.729Z,19.40
2023-07-28T07:22:40.175Z,19.40
2023-07-28T07:25:09.969Z,19.60
2023-07-28T07:27:36.923Z,19.50
2023-07-28T07:30:05.212Z,19.50
2023-07-28T07:32:34.862Z,19.60
2023-07-28T07:35:04.181Z,19.50
2023-07-28T07:37:33.235Z,19.50
2023-07-28T07:40:02.065Z,19.50
2023-07-28T07:42:42.233Z,19.60
2023-07-28T07:45:10.299Z,19.70
2023-07-28T07:47:37.053Z,19.80
2023-07-28T07:50:06.846Z,19.90
2023-07-28T07:52:33.709Z,19.90
2023-07-28T07:55:00.717Z,20.00
2023-07-28T07:57:30.194Z,20.00
2023-07-28T07:59:59.050Z,20.00
2023-07-28T08:02:26.229Z,19.90
2023-07-28T08:04:55.190Z,19.90
2023-07-28T08:07:22.373Z,19.80
2023-07-28T08:09:51.668Z,19.80
2023-07-28T08:12:18.872Z,20.00
2023-07-28T08:14:47.181Z,20.00
2023-07-28T08:17:13.948Z,20.00
2023-07-28T08:19:40.748Z,19.90
2023-07-28T08:22:08.204Z,20.00
2023-07-28T08:24:35.060Z,20.00
2023-07-28T08:27:01.848Z,20.10
2023-07-28T08:29:28.635Z,20.20
2023-07-28T08:31:55.623Z,20.20
2023-07-28T08:34:22.482Z,20.20
2023-07-28T08:36:49.570Z,20.30
2023-07-28T08:39:16.333Z,20.20
2023-07-28T08:41:43.050Z,20.30
2023-07-28T08:44:10.109Z,20.30
2023-07-28T08:46:37.634Z,20.30
2023-07-28T08:49:04.468Z,20.40
2023-07-28T08:51:31.394Z,20.40
2023-07-28T08:53:58.223Z,20.40
2023-07-28T08:56:25.793Z,20.40
2023-07-28T08:59:00.298Z,20.50
2023-07-28T09:01:27.208Z,20.50
2023-07-28T09:03:55.400Z,20.60
2023-07-28T09:06:34.803Z,20.60
2023-07-28T09:09:07.874Z,20.70
2023-07-28T09:11:34.830Z,20.80
2023-07-28T09:14:12.264Z,20.80
2023-07-28T09:16:39.017Z,20.90
2023-07-28T09:19:12.767Z,21.00
2023-07-28T09:21:40.127Z,21.00
2023-07-28T09:24:12.123Z,21.20
2023-07-28T09:26:43.821Z,21.30
2023-07-28T09:29:21.698Z,21.40
2023-07-28T09:31:50.775Z,21.40
2023-07-28T09:34:28.624Z,21.50
2023-07-28T09:36:56.074Z,21.50
2023-07-28T09:39:27.633Z,21.60
2023-07-28T09:41:59.736Z,21.60
2023-07-28T09:44:29.116Z,21.60
2023-07-28T09:46:57.739Z,21.60
2023-07-28T09:49:37.157Z,21.70
2023-07-28T09:52:09.443Z,21.60
2023-07-28T09:54:44.144Z,21.60
2023-07-28T09:57:15.188Z,21.60
2023-07-28T09:59:46.500Z,21.60
2023-07-28T10:02:16.108Z,21.60
2023-07-28T10:04:43.160Z,21.60
2023-07-28T10:07:13.861Z,21.60
2023-07-28T10:09:41.144Z,21.50
2023-07-28T10:12:18.206Z,21.60
2023-07-28T10:14:45.012Z,21.50
2023-07-28T10:17:17.649Z,21.50
2023-07-28T10:19:47.046Z,21.40
2023-07-28T10:22:14.005Z,21.30
2023-07-28T10:25:01.270Z,21.40
2023-07-28T10:27:45.242Z,21.50
2023-07-28T10:30:15.429Z,21.50
2023-07-28T10:32:50.315Z,21.50
2023-07-28T10:35:32.063Z,21.60
2023-07-28T10:37:59.207Z,21.60
2023-07-28T10:40:36.437Z,21.50
2023-07-28T10:43:06.414Z,21.40
2023-07-28T10:45:33.890Z,21.30
2023-07-28T10:48:01.756Z,21.30
2023-07-28T10:50:32.606Z,21.40
2023-07-28T10:53:04.086Z,21.40
2023-07-28T10:55:31.486Z,21.40
2023-07-28T10:57:59.848Z,21.50
2023-07-28T11:00:26.758Z,21.50
2023-07-28T11:02:55.397Z,21.50
2023-07-28T11:05:32.391Z,21.50
2023-07-28T11:08:03.295Z,21.60
2023-07-28T11:10:33.240Z,21.50
2023-07-28T11:13:06.827Z,21.50
2023-07-28T11:15:43.274Z,21.40
2023-07-28T11:18:11.002Z,21.40
2023-07-28T11:20:37.972Z,21.50
2023-07-28T11:23:06.275Z,21.30
2023-07-28T11:25:34.810Z,21.30
2023-07-28T11:28:07.840Z,21.30
2023-07-28T11:30:41.871Z,21.20
2023-07-28T11:33:13.071Z,21.00
2023-07-28T11:35:47.688Z,21.00
2023-07-28T11:38:16.382Z,20.90
2023-07-28T11:40:43.411Z,20.80
2023-07-28T11:43:12.415Z,20.70
2023-07-28T11:45:39.176Z,20.70
2023-07-28T11:48:07.695Z,20.60
2023-07-28T11:50:43.075Z,20.60
2023-07-28T11:53:13.731Z,20.50
2023-07-28T11:55:42.768Z,20.60
2023-07-28T11:58:10.648Z,20.50
2023-07-28T12:00:39.305Z,20.40
2023-07-28T12:03:14.153Z,20.40
2023-07-28T12:08:13.370Z,20.40
2023-07-28T12:13:32.873Z,20.40
2023-07-28T12:21:04.024Z,20.50
2023-07-28T12:26:01.011Z,20.30
2023-07-28T12:28:27.904Z,20.30
2023-07-28T12:31:00.498Z,20.30
2023-07-28T12:36:25.097Z,20.30
2023-07-28T12:38:46.748Z,20.30
2023-07-28T12:41:13.502Z,20.40
2023-07-28T12:46:11.792Z,20.30
2023-07-28T12:48:48.119Z,20.40
2023-07-28T12:51:30.883Z,20.30
2023-07-28T12:53:58.023Z,20.20
2023-07-28T13:01:26.667Z,20.20
2023-07-28T13:03:55.739Z,20.10
2023-07-28T13:06:22.657Z,20.00
2023-07-28T13:11:19.065Z,20.00
2023-07-28T13:13:45.956Z,20.00
2023-07-28T13:16:13.457Z,20.00
2023-07-28T13:18:40.938Z,20.00
2023-07-28T13:21:07.779Z,20.00
2023-07-28T13:23:34.550Z,20.00
2023-07-28T13:26:01.389Z,20.00
2023-07-28T13:28:28.388Z,20.00
2023-07-28T13:30:55.371Z,19.90
2023-07-28T13:33:24.740Z,19.90
2023-07-28T13:35:51.822Z,20.00
2023-07-28T13:38:18.566Z,20.00
2023-07-28T13:40:49.748Z,20.00
2023-07-28T13:43:17.839Z,20.10
2023-07-28T13:45:47.121Z,20.10
2023-07-28T13:58:25.557Z,20.00
2023-07-28T14:00:52.583Z,19.80
2023-07-28T14:03:22.165Z,19.90
2023-07-28T14:05:51.434Z,19.90
2023-07-28T14:08:18.175Z,19.90
2023-07-28T14:10:46.367Z,19.90
2023-07-28T14:13:13.766Z,19.90
2023-07-28T14:15:41.757Z,20.00
2023-07-28T14:18:08.776Z,20.00
2023-07-28T14:20:35.841Z,20.00
2023-07-28T14:23:03.108Z,20.00
2023-07-28T14:25:29.896Z,20.00
2023-07-28T14:27:56.892Z,19.90
2023-07-28T14:30:26.555Z,19.90
2023-07-28T14:32:53.497Z,19.90
2023-07-28T14:35:20.513Z,19.90
2023-07-28T14:37:47.680Z,19.80
2023-07-28T14:40:14.456Z,19.80
2023-07-28T14:42:41.179Z,19.80
2023-07-28T14:45:08.481Z,19.80
2023-07-28T14:47:35.175Z,19.80
2023-07-28T14:50:02.024Z,19.80
2023-07-28T14:52:28.918Z,19.80
2023-07-28T14:54:57.943Z,19.80
2023-07-28T14:57:34.582Z,19.90
2023-07-28T15:00:02.094Z,19.90
2023-07-28T15:02:28.890Z,19.90
2023-07-28T15:04:55.636Z,19.90
2023-07-28T15:07:23.896Z,19.80
2023-07-28T15:09:53.084Z,19.80
2023-07-28T15:12:19.779Z,19.80
2023-07-28T15:14:46.461Z,19.80
2023-07-28T15:17:13.264Z,19.80
2023-07-28T15:19:39.983Z,19.80
2023-07-28T15:22:09.147Z,19.80
2023-07-28T15:24:40.495Z,19.90
2023-07-28T15:27:07.344Z,19.90
2023-07-28T15:29:34.064Z,19.80
2023-07-28T15:32:00.782Z,19.80
2023-07-28T15:34:27.750Z,19.70
2023-07-28T15:36:54.460Z,19.80
2023-07-28T15:39:21.165Z,19.80
2023-07-28T15:41:50.544Z,19.80
2023-07-28T15:44:17.564Z,19.80
2023-07-28T15:46:44.585Z,19.80
2023-07-28T15:49:11.525Z,19.90
2023-07-28T15:51:38.595Z,19.90
2023-07-28T15:54:06.837Z,19.90
2023-07-28T15:56:33.939Z,19.90
2023-07-28T15:59:00.967Z,19.80
2023-07-28T16:01:30.089Z,19.80
2023-07-28T16:03:58.083Z,19.80
2023-07-28T16:06:29.932Z,19.90
2023-07-28T16:09:07.361Z,19.90
2023-07-28T16:11:42.704Z,19.90
2023-07-28T16:14:09.516Z,20.00
2023-07-28T16:16:36.793Z,20.00
2023-07-28T16:19:03.721Z,20.00
2023-07-28T16:21:30.455Z,20.10
2023-07-28T16:23:59.838Z,20.10
2023-07-28T16:26:26.933Z,20.10
2023-07-28T16:28:55.822Z,20.20
2023-07-28T16:31:22.660Z,20.20
2023-07-28T16:33:49.617Z,20.20
2023-07-28T16:36:17.404Z,20.20
2023-07-28T16:38:44.182Z,20.20
2023-07-28T16:41:10.981Z,20.20
2023-07-28T16:43:37.695Z,20.20
2023-07-28T16:46:04.529Z,20.20
2023-07-28T16:48:33.554Z,20.30
2023-07-28T16:51:02.657Z,20.20
2023-07-28T16:53:31.782Z,20.20
2023-07-28T16:56:00.709Z,20.20
2023-07-28T16:58:27.615Z,20.20
2023-07-28T17:00:56.901Z,20.20
2023-07-28T17:03:25.511Z,20.20
2023-07-28T17:05:52.748Z,20.20
2023-07-28T17:08:22.930Z,20.30
2023-07-28T17:10:52.250Z,20.30
2023-07-28T17:13:22.153Z,20.40
2023-07-28T17:15:49.975Z,20.40
2023-07-28T17:18:16.960Z,20.40
2023-07-28T17:20:43.805Z,20.50
2023-07-28T17:23:10.764Z,20.50
2023-07-28T17:25:39.949Z,20.50
2023-07-28T17:28:09.156Z,20.50
2023-07-28T17:30:35.917Z,20.40
2023-07-28T17:33:02.723Z,20.50
2023-07-28T17:35:31.757Z,20.40
2023-07-28T17:37:58.985Z,20.40
2023-07-28T17:40:27.820Z,20.40
2023-07-28T17:42:54.528Z,20.40
2023-07-28T17:45:21.222Z,20.40
2023-07-28T17:47:48.522Z,20.30
2023-07-28T17:50:17.265Z,20.30
2023-07-28T17:52:46.834Z,20.30
2023-07-28T17:55:18.395Z,20.20
2023-07-28T17:57:47.443Z,20.20
2023-07-28T18:00:15.886Z,20.20
2023-07-28T18:02:46.306Z,20.20
2023-07-28T18:05:13.155Z,20.30
2023-07-28T18:07:42.496Z,20.20
2023-07-28T18:10:09.712Z,20.20
2023-07-28T18:12:37.133Z,20.20
2023-07-28T18:15:06.117Z,20.20
2023-07-28T18:17:33.080Z,20.10
2023-07-28T18:20:02.591Z,20.10
2023-07-28T18:22:32.112Z,20.10
2023-07-28T18:24:58.947Z,20.10
2023-07-28T18:27:33.056Z,20.00
2023-07-28T18:29:59.764Z,20.00
2023-07-28T18:32:26.593Z,20.00
2023-07-28T18:34:53.466Z,20.10
2023-07-28T18:37:23.025Z,20.00
2023-07-28T18:39:49.768Z,20.00
2023-07-28T18:42:16.470Z,20.00
2023-07-28T18:44:43.262Z,20.00
2023-07-28T18:47:12.994Z,20.00
2023-07-28T18:49:41.938Z,20.00
2023-07-28T18:52:08.917Z,20.00
2023-07-28T18:54:36.036Z,20.00
2023-07-28T18:57:04.562Z,19.90
2023-07-28T18:59:31.300Z,19.90
2023-07-28T19:01:58.276Z,19.80
2023-07-28T19:04:25.097Z,19.80
2023-07-28T19:06:52.070Z,19.80
2023-07-28T19:09:19.090Z,19.80
2023-07-28T19:11:48.001Z,19.70
2023-07-28T19:14:17.985Z,19.70
2023-07-28T19:16:44.831Z,19.70
2023-07-28T19:19:14.112Z,19.70
2023-07-28T19:21:41.161Z,19.70
2023-07-28T19:24:08.004Z,19.70
2023-07-28T19:26:35.388Z,19.60
2023-07-28T19:29:04.232Z,19.50
2023-07-28T19:31:36.717Z,19.50
2023-07-28T19:34:03.757Z,19.50
2023-07-28T19:36:30.823Z,19.50
2023-07-28T19:38:57.745Z,19.40
2023-07-28T19:41:26.343Z,19.40
2023-07-28T19:43:55.274Z,19.40
2023-07-28T19:46:23.585Z,19.40
2023-07-28T19:48:50.698Z,19.30
2023-07-28T19:51:17.694Z,19.30
2023-07-28T19:53:44.479Z,19.20
2023-07-28T19:56:11.456Z,19.20
2023-07-28T19:58:38.316Z,19.20
2023-07-28T20:01:08.246Z,19.20
2023-07-28T20:03:35.149Z,19.10
2023-07-28T20:06:05.776Z,19.10
2023-07-28T20:08:32.527Z,19.00
2023-07-28T20:10:59.277Z,19.00
2023-07-28T20:13:26.094Z,19.00
2023-07-28T20:15:54.736Z,18.90
2023-07-28T20:18:24.664Z,18.90
2023-07-28T20:20:55.797Z,18.90
2023-07-28T20:23:24.764Z,18.90
2023-07-28T20:25:51.442Z,18.80
2023-07-28T20:28:20.750Z,18.80
2023-07-28T20:30:47.640Z,18.80
2023-07-28T20:33:14.425Z,18.70
2023-07-28T20:35:41.257Z,18.70
2023-07-28T20:38:10.546Z,18.70
2023-07-28T20:40:37.398Z,18.70
2023-07-28T20:43:04.232Z,18.70
2023-07-28T20:45:30.982Z,18.70
2023-07-28T20:47:57.878Z,18.70
2023-07-28T20:50:25.022Z,18.70
2023-07-28T20:52:51.755Z,18.70
2023-07-28T20:55:21.584Z,18.70
2023-07-28T20:57:48.508Z,18.70
2023-07-28T21:00:18.025Z,18.60
2023-07-28T21:02:44.820Z,18.70
2023-07-28T21:05:11.600Z,18.70
2023-07-28T21:07:38.338Z,18.60
2023-07-28T21:10:05.580Z,18.70
2023-07-28T21:12:32.263Z,18.70
2023-07-28T21:14:59.045Z,18.70
2023-07-28T21:17:25.726Z,18.60
2023-07-28T21:19:52.426Z,18.60
2023-07-28T21:22:19.732Z,18.60
2023-07-28T21:24:48.718Z,18.60
2023-07-28T21:27:15.430Z,18.60
2023-07-28T21:29:42.607Z,18.60
2023-07-28T21:32:09.418Z,18.60
2023-07-28T21:34:36.238Z,18.60
2023-07-28T21:37:02.923Z,18.50
2023-07-28T21:39:32.711Z,18.50
2023-07-28T21:41:59.465Z,18.50
2023-07-28T21:44:26.958Z,18.50
2023-07-28T21:46:53.975Z,18.40
2023-07-28T21:49:21.909Z,18.40
2023-07-28T21:51:51.121Z,18.40
2023-07-28T21:54:17.923Z,18.40
2023-07-28T21:56:44.735Z,18.40
2023-07-28T21:59:11.440Z,18.40
2023-07-28T22:01:38.160Z,18.40
2023-07-28T22:04:05.740Z,18.40
2023-07-28T22:06:32.864Z,18.40
2023-07-28T22:08:59.941Z,18.50
2023-07-28T22:11:31.362Z,18.50
2023-07-28T22:14:00.698Z,18.40
2023-07-28T22:16:29.198Z,18.50
2023-07-28T22:18:57.557Z,18.50
2023-07-28T22:21:24.390Z,18.50
2023-07-28T22:23:53.382Z,18.50
2023-07-28T22:26:20.630Z,18.50
2023-07-28T22:28:47.338Z,18.50
2023-07-28T22:31:14.121Z,18.50
2023-07-28T22:33:43.032Z,18.50
2023-07-28T22:36:09.817Z,18.50
2023-07-28T22:38:36.666Z,18.50
2023-07-28T22:41:05.883Z,18.60
2023-07-28T22:43:32.534Z,18.50
2023-07-28T22:45:59.430Z,18.60
2023-07-28T22:48:26.366Z,18.60
2023-07-28T22:50:53.475Z,18.70
2023-07-28T22:53:22.583Z,18.70
2023-07-28T22:55:49.365Z,18.70
2023-07-28T22:58:16.100Z,18.70
2023-07-28T23:00:43.178Z,18.70
2023-07-28T23:03:10.045Z,18.70
2023-07-28T23:05:38.356Z,18.80
2023-07-28T23:08:07.423Z,18.70
2023-07-28T23:10:36.515Z,18.70
2023-07-28T23:13:03.489Z,18.80
2023-07-28T23:15:30.372Z,18.70
2023-07-28T23:17:59.289Z,18.70
2023-07-28T23:20:26.083Z,18.70
2023-07-28T23:22:55.031Z,18.70
2023-07-28T23:25:21.766Z,18.60
2023-07-28T23:27:48.438Z,18.60
2023-07-28T23:30:15.172Z,18.50
2023-07-28T23:32:41.986Z,18.50
2023-07-28T23:35:09.019Z,18.50
2023-07-28T23:37:35.791Z,18.40
2023-07-28T23:40:05.078Z,18.40
2023-07-28T23:42:32.294Z,18.40
2023-07-28T23:44:59.450Z,18.40
2023-07-28T23:47:26.396Z,18.40
2023-07-28T23:49:55.298Z,18.40
2023-07-28T23:52:26.731Z,18.40
2023-07-28T23:54:53.495Z,18.30
2023-07-28T23:57:20.357Z,18.30
2023-07-28T23:59:47.977Z,18.30
